Time;durP1;ratioP1;P1;durP2;ratioP2;P2;SDS_P1;SDS_P2;PMS_P1;PMS_P2;Temp;Humidity;BMP_temperature;BMP_pressure;BME280_temperature;BME280_humidity;BME280_pressure;Samples;Min_cycle;Max_cycle;Signal;HPM_P1;HPM_P2
2022/01/30 00:00:00;;;;;;;;;1.75;1.00;;;;;13.73;40.94;97425.69;6293221;22;102346;-81
2022/01/30 00:02:28;;;;;;;;;1.00;1.00;;;;;13.73;40.72;97429.19;6295906;22;102095;-79
2022/01/30 00:04:55;;;;;;;;;2.00;1.00;;;;;13.73;40.59;97422.97;6298727;22;103360;-80
2022/01/30 00:07:22;;;;;;;;;2.00;2.00;;;;;13.75;41.04;97404.50;6289276;22;101845;-80
2022/01/30 00:09:50;;;;;;;;;1.00;1.00;;;;;13.75;40.71;97409.94;6317850;22;101886;-80
2022/01/30 00:12:22;;;;;;;;;1.75;1.00;;;;;13.75;40.52;97404.50;6320340;22;102106;-80
2022/01/30 00:14:53;;;;;;;;;1.00;1.00;;;;;13.76;40.25;97398.00;6287129;22;103560;-80
2022/01/30 00:17:22;;;;;;;;;1.25;1.25;;;;;13.78;41.06;97404.00;6315629;22;101838;-80
2022/01/30 00:20:00;;;;;;;;;0.75;0.75;;;;;13.78;40.29;97384.97;6315744;22;101824;-80
2022/01/30 00:25:02;;;;;;;;;2.00;1.00;;;;;13.79;40.84;97381.19;6321617;22;103704;-79
2022/01/30 00:27:45;;;;;;;;;1.00;1.00;;;;;13.79;41.11;97389.34;6314282;22;102096;-80
2022/01/30 00:30:14;;;;;;;;;1.50;1.00;;;;;13.80;40.39;97404.56;6321213;22;103925;-80
2022/01/30 00:32:41;;;;;;;;;1.75;1.00;;;;;13.82;41.18;97405.94;6321391;22;101726;-80
2022/01/30 00:35:28;;;;;;;;;1.00;1.00;;;;;13.82;40.92;97405.16;6276477;22;106854;-80
2022/01/30 00:37:56;;;;;;;;;1.25;1.00;;;;;13.81;41.19;97396.19;6327028;22;101491;-80
2022/01/30 00:40:33;;;;;;;;;2.50;1.00;;;;;13.81;40.98;97407.06;6324024;22;101920;-80
2022/01/30 00:43:00;;;;;;;;;1.00;1.00;;;;;13.83;40.99;97401.34;6320381;22;102040;-80
2022/01/30 00:45:28;;;;;;;;;1.00;0.25;;;;;13.81;40.27;97398.06;6319277;22;103286;-80
2022/01/30 00:47:55;;;;;;;;;1.50;1.00;;;;;13.82;40.60;97397.00;6323176;22;101814;-80
2022/01/30 00:50:22;;;;;;;;;1.00;1.00;;;;;13.82;40.96;97405.16;6320855;22;103567;-80
2022/01/30 00:52:53;;;;;;;;;3.00;1.50;;;;;13.82;40.89;97400.53;6325351;22;101837;-80
2022/01/30 00:55:24;;;;;;;;;2.00;2.00;;;;;13.83;40.19;97412.22;6320682;22;103461;-80
2022/01/30 00:57:52;;;;;;;;;1.00;1.00;;;;;13.84;41.00;97408.44;6316518;22;102989;-80
2022/01/30 01:00:19;;;;;;;;;1.00;1.00;;;;;13.84;40.30;97394.84;6322970;22;101871;-80
2022/01/30 01:02:46;;;;;;;;;1.00;1.00;;;;;13.85;40.87;97399.22;6304001;22;101984;-80
2022/01/30 01:05:14;;;;;;;;;2.00;2.00;;;;;13.84;40.31;97398.38;6305096;22;103472;-80
2022/01/30 01:07:45;;;;;;;;;1.75;1.00;;;;;13.85;40.20;97407.38;6305435;22;102090;-80
2022/01/30 01:10:30;;;;;;;;;2.00;1.00;;;;;13.88;41.03;97409.56;6284667;22;102063;-80
2022/01/30 01:23:45;;;;;;;;;1.00;1.00;;;;;13.90;40.92;97402.00;6318412;22;102114;-80
2022/01/30 01:26:12;;;;;;;;;1.00;1.00;;;;;13.91;41.11;97403.66;6323238;22;103560;-80
2022/01/30 01:28:39;;;;;;;;;0.00;0.00;;;;;13.91;40.39;97405.53;6321194;22;101780;-80
2022/01/30 01:31:07;;;;;;;;;1.00;1.00;;;;;13.91;40.91;97411.81;6300797;22;102091;-80
2022/01/30 01:33:48;;;;;;;;;1.00;1.00;;;;;13.91;41.02;97398.22;6309910;22;101683;-80
2022/01/30 01:36:15;;;;;;;;;1.00;0.50;;;;;13.92;40.82;97390.88;6303388;22;103361;-80
2022/01/30 01:38:42;;;;;;;;;0.25;0.25;;;;;13.92;40.56;97402.56;6302729;22;101965;-80
2022/01/30 01:41:10;;;;;;;;;0.50;0.50;;;;;13.93;40.58;97420.50;6302138;22;101902;-80
2022/01/30 01:43:37;;;;;;;;;0.00;0.00;;;;;13.93;40.39;97414.25;6315326;22;102049;-80
2022/01/30 01:46:12;;;;;;;;;1.00;1.00;;;;;13.93;40.95;97415.06;6290103;22;103614;-79
2022/01/30 01:48:41;;;;;;;;;2.25;1.00;;;;;13.93;40.67;97404.22;6311886;22;101810;-80
2022/01/30 01:51:17;;;;;;;;;1.00;0.50;;;;;13.93;40.78;97401.50;6311353;22;101749;-80
2022/01/30 01:53:45;;;;;;;;;1.50;1.00;;;;;13.95;40.33;97388.50;6290629;22;102035;-80
2022/01/30 01:56:15;;;;;;;;;1.50;1.00;;;;;13.97;40.86;97385.50;6317810;22;103053;-80
2022/01/30 01:58:42;;;;;;;;;0.00;0.00;;;;;13.96;41.21;97398.25;6316453;22;102027;-80
2022/01/30 02:01:09;;;;;;;;;0.00;0.00;;;;;13.96;40.51;97392.81;6311547;22;102616;-80
2022/01/30 02:03:40;;;;;;;;;1.00;1.00;;;;;13.97;40.29;97386.31;6281918;22;102587;-80
2022/01/30 02:06:10;;;;;;;;;1.00;1.00;;;;;13.96;40.50;97383.88;6255702;22;108161;-80
2022/01/30 02:08:40;;;;;;;;;1.00;1.00;;;;;13.97;40.97;97388.22;6282492;22;102701;-80
2022/01/30 02:11:11;;;;;;;;;1.00;1.00;;;;;13.98;40.17;97376.28;6283955;22;102751;-80
2022/01/30 02:25:36;;;;;;;;;0.50;0.50;;;;;14.00;40.43;97385.84;6281061;22;102125;-80
2022/01/30 02:27:55;;;;;;;;;1.00;0.00;;;;;14.01;40.47;97360.28;6316472;22;107923;-81
2022/01/30 02:30:26;;;;;;;;;2.75;1.00;;;;;14.01;40.94;97357.56;6308790;22;101845;-80
2022/01/30 02:32:54;;;;;;;;;0.75;0.75;;;;;14.02;40.35;97361.94;6318988;22;103543;-80
2022/01/30 02:35:22;;;;;;;;;0.25;0.25;;;;;14.04;40.66;97369.84;6316132;22;102337;-80
2022/01/30 02:37:52;;;;;;;;;0.50;0.00;;;;;14.04;40.51;97378.00;6273766;22;103297;-81
2022/01/30 02:40:19;;;;;;;;;1.00;0.00;;;;;14.03;41.08;97369.00;6284432;22;101954;-80
2022/01/30 02:42:50;;;;;;;;;0.00;0.00;;;;;14.04;40.44;97373.38;6319696;22;102132;-80
2022/01/30 02:45:20;;;;;;;;;0.00;0.00;;;;;14.04;41.05;97367.94;6309051;22;101896;-80
2022/01/30 02:47:58;;;;;;;;;0.25;0.25;;;;;14.04;40.86;97367.94;6286198;22;103398;-80
2022/01/30 02:50:36;;;;;;;;;0.00;0.00;;;;;14.04;40.50;97365.22;6318174;22;101852;-80
2022/01/30 02:53:05;;;;;;;;;1.50;0.00;;;;;14.04;41.13;97362.50;6296526;22;101972;-80
2022/01/30 02:55:32;;;;;;;;;2.50;0.00;;;;;14.07;40.39;97348.41;6286984;22;102192;-80
2022/01/30 02:58:00;;;;;;;;;0.25;0.25;;;;;14.06;40.46;97351.38;6296876;22;103295;-80
2022/01/30 03:00:26;;;;;;;;;1.25;0.00;;;;;14.06;40.32;97344.03;6316994;22;102120;-80
2022/01/30 03:02:53;;;;;;;;;0.00;0.00;;;;;14.06;40.35;97363.06;6321042;22;101945;-80
2022/01/30 03:05:21;;;;;;;;;0.00;0.00;;;;;14.07;40.51;97344.88;6319868;22;101726;-80
2022/01/30 03:07:48;;;;;;;;;1.00;1.00;;;;;14.08;41.14;97343.78;6292107;22;103313;-80
2022/01/30 03:10:15;;;;;;;;;0.50;0.50;;;;;14.08;40.40;97344.63;6321177;22;101818;-80
2022/01/30 03:12:42;;;;;;;;;1.00;1.00;;;;;14.10;40.37;97357.94;6323883;22;102136;-80
2022/01/30 03:15:10;;;;;;;;;1.00;1.00;;;;;14.10;40.74;97345.16;6322899;22;101802;-79
2022/01/30 03:17:37;;;;;;;;;0.50;0.25;;;;;14.11;40.95;97338.66;6298229;22;103544;-81
2022/01/30 03:20:04;;;;;;;;;0.00;0.00;;;;;14.11;40.45;97340.56;6321739;22;102063;-80
2022/01/30 03:22:32;;;;;;;;;1.00;1.00;;;;;14.11;40.16;97330.50;6320280;22;102114;-80
2022/01/30 03:24:59;;;;;;;;;0.00;0.00;;;;;14.11;40.45;97325.06;6318987;22;101910;-80
2022/01/30 03:27:28;;;;;;;;;1.00;0.00;;;;;14.11;40.44;97322.34;6322707;22;103247;-80
2022/01/30 03:30:03;;;;;;;;;0.00;0.00;;;;;14.11;40.39;97316.91;6323618;22;101613;-80
2022/01/30 03:32:30;;;;;;;;;0.50;0.00;;;;;14.13;40.57;97343.84;6327084;22;102184;-80
2022/01/30 03:34:58;;;;;;;;;1.50;0.00;;;;;14.12;40.09;97334.88;6293883;22;102071;-80
2022/01/30 03:37:25;;;;;;;;;0.00;0.00;;;;;14.12;40.79;97328.63;6321186;22;103458;-80
2022/01/30 03:39:52;;;;;;;;;1.00;0.00;;;;;14.12;40.52;97313.13;6319906;22;101813;-80
2022/01/30 03:42:19;;;;;;;;;0.00;0.00;;;;;14.13;40.49;97319.41;6296762;22;101994;-80
2022/01/30 03:44:46;;;;;;;;;0.00;0.00;;;;;14.13;40.88;97324.84;6324870;22;101990;-80
2022/01/30 03:47:13;;;;;;;;;1.25;1.00;;;;;14.13;40.40;97328.38;6318716;22;103634;-80
2022/01/30 03:49:40;;;;;;;;;2.00;1.25;;;;;14.14;40.42;97335.44;6325397;22;101928;-80
2022/01/30 03:52:07;;;;;;;;;0.00;0.00;;;;;14.14;40.21;97310.97;6322062;22;102213;-80
2022/01/30 03:54:35;;;;;;;;;1.00;0.00;;;;;14.14;40.27;97310.97;6312899;22;102024;-80
2022/01/30 03:57:03;;;;;;;;;0.50;0.50;;;;;14.13;40.17;97325.66;6276964;22;103347;-80
2022/01/30 03:59:30;;;;;;;;;0.50;0.50;;;;;14.15;40.65;97349.84;6312335;22;103855;-80
2022/01/30 04:01:57;;;;;;;;;0.00;0.00;;;;;14.14;40.43;97321.00;6319334;22;101961;-80
2022/01/30 04:04:25;;;;;;;;;0.50;0.50;;;;;14.13;40.73;97341.97;6323101;22;101796;-80
2022/01/30 04:06:52;;;;;;;;;1.00;0.00;;;;;14.14;40.34;97349.03;6322529;22;103240;-80
2022/01/30 04:09:19;;;;;;;;;0.00;0.00;;;;;14.14;40.51;97331.88;6317157;22;101815;-80
2022/01/30 04:11:46;;;;;;;;;1.00;1.00;;;;;14.15;40.38;97352.56;6292769;22;101687;-80
2022/01/30 04:14:13;;;;;;;;;0.00;0.00;;;;;14.14;40.29;97357.19;6318560;22;101959;-80
2022/01/30 04:16:41;;;;;;;;;1.00;0.75;;;;;14.14;40.84;97375.38;6325014;22;103229;-79
2022/01/30 04:19:08;;;;;;;;;1.00;0.00;;;;;14.14;40.80;97383.53;6326897;22;102087;-80
2022/01/30 04:21:35;;;;;;;;;1.00;0.00;;;;;14.13;40.37;97380.03;6323986;22;103727;-80
2022/01/30 04:24:02;;;;;;;;;0.00;0.00;;;;;14.13;40.74;97369.16;6326339;22;101980;-80
2022/01/30 04:26:30;;;;;;;;;0.75;0.00;;;;;14.14;40.52;97361.78;6293734;22;103307;-80
2022/01/30 04:28:57;;;;;;;;;1.00;0.00;;;;;14.14;41.00;97338.16;6320867;22;101686;-80
2022/01/30 04:31:24;;;;;;;;;0.00;0.00;;;;;14.13;40.51;97322.94;6320325;22;101779;-80
2022/01/30 04:33:51;;;;;;;;;0.00;0.00;;;;;14.13;41.07;97341.97;6328979;22;102193;-80
2022/01/30 04:36:25;;;;;;;;;0.00;0.00;;;;;14.13;40.27;97341.97;6313740;22;103247;-80
2022/01/30 04:39:02;;;;;;;;;0.00;0.00;;;;;14.14;40.99;97338.16;6319644;22;101871;-81
2022/01/30 04:57:51;;;;;;;;;0.00;0.00;;;;;14.12;40.50;97325.91;6323013;22;103455;-80
2022/01/30 05:00:36;;;;;;;;;0.00;0.00;;;;;14.10;40.98;97319.88;6321426;22;101899;-80
2022/01/30 05:03:24;;;;;;;;;0.00;0.00;;;;;14.11;40.54;97327.78;6294928;22;101589;-80
2022/01/30 05:08:18;;;;;;;;;0.00;0.00;;;;;14.10;40.68;97334.28;6322511;22;103342;-80
2022/01/30 05:10:45;;;;;;;;;0.25;0.25;;;;;14.10;40.34;97323.41;6322856;22;101788;-80
2022/01/30 05:13:17;;;;;;;;;0.00;0.00;;;;;14.12;40.77;97309.59;6322903;22;101934;-80
2022/01/30 05:15:44;;;;;;;;;0.00;0.00;;;;;14.11;40.32;97289.75;6313386;22;101806;-80
2022/01/30 05:18:15;;;;;;;;;0.00;0.00;;;;;14.12;41.10;97290.56;6326148;22;103242;-80
2022/01/30 05:20:43;;;;;;;;;0.00;0.00;;;;;14.10;40.76;97293.53;6286291;22;101770;-80
2022/01/30 05:23:10;;;;;;;;;0.00;0.00;;;;;14.10;40.64;97273.66;6321363;22;102018;-80
2022/01/30 05:25:37;;;;;;;;;0.00;0.00;;;;;14.10;40.39;97260.91;6279784;22;101703;-80
2022/01/30 05:28:06;;;;;;;;;0.00;0.00;;;;;14.10;40.65;97273.66;6323502;22;103303;-80
2022/01/30 05:30:35;;;;;;;;;0.00;0.00;;;;;14.09;40.30;97255.75;6314929;22;102071;-80
2022/01/30 05:33:02;;;;;;;;;0.00;0.00;;;;;14.08;40.87;97257.63;6320019;22;102152;-80
2022/01/30 05:35:29;;;;;;;;;0.00;0.00;;;;;14.09;40.52;97242.97;6323181;22;101993;-80
2022/01/30 05:37:57;;;;;;;;;0.00;0.00;;;;;14.08;41.00;97240.50;6289578;22;104218;-80
2022/01/30 05:40:24;;;;;;;;;0.00;0.00;;;;;14.06;40.60;97221.72;6315597;22;102185;-80
2022/01/30 05:42:51;;;;;;;;;1.00;0.00;;;;;14.07;40.94;97220.66;6318142;22;101965;-80
2022/01/30 05:45:33;;;;;;;;;0.00;0.00;;;;;14.07;40.90;97231.53;6321919;22;101926;-80
2022/01/30 05:48:06;;;;;;;;;0.00;0.00;;;;;14.07;40.79;97211.69;6319869;22;103467;-80
2022/01/30 05:50:34;;;;;;;;;0.00;0.00;;;;;14.07;40.03;97217.94;6319627;22;102494;-80
2022/01/30 05:53:01;;;;;;;;;0.00;0.00;;;;;14.07;40.25;97212.50;6320717;22;102113;-80
2022/01/30 05:55:28;;;;;;;;;0.00;0.00;;;;;14.08;40.78;97202.47;6328005;22;102237;-80
2022/01/30 05:57:55;;;;;;;;;0.00;0.00;;;;;14.07;40.92;97196.19;6319181;22;103435;-80
2022/01/30 06:00:22;;;;;;;;;0.00;0.00;;;;;14.07;40.19;97207.06;6292130;22;102018;-80
2022/01/30 06:02:49;;;;;;;;;0.00;0.00;;;;;14.08;40.69;97202.47;6308367;22;101657;-80
2022/01/30 06:05:18;;;;;;;;;0.00;0.00;;;;;14.07;40.85;97204.34;6283606;22;102253;-80
2022/01/30 06:07:49;;;;;;;;;0.00;0.00;;;;;14.06;40.95;97208.13;6325748;22;102981;-80
2022/01/30 06:10:17;;;;;;;;;0.00;0.00;;;;;14.07;40.89;97206.25;6314379;22;102048;-80
2022/01/30 06:12:44;;;;;;;;;0.00;0.00;;;;;14.05;40.38;97203.78;6321950;22;101643;-80
2022/01/30 06:15:13;;;;;;;;;0.00;0.00;;;;;14.05;40.42;97203.78;6326920;22;102175;-80
2022/01/30 06:17:41;;;;;;;;;0.75;0.00;;;;;14.07;40.92;97217.13;6312604;22;107990;-80
2022/01/30 06:20:11;;;;;;;;;0.75;0.00;;;;;14.06;40.79;97229.88;6322612;22;101837;-80
2022/01/30 06:22:38;;;;;;;;;0.00;0.00;;;;;14.06;40.83;97224.44;6287951;22;102294;-80
2022/01/30 06:25:11;;;;;;;;;0.00;0.00;;;;;14.05;40.80;97211.94;6323033;22;102000;-80
2022/01/30 06:27:38;;;;;;;;;0.00;0.00;;;;;14.07;40.23;97233.44;6316454;22;107665;-80
2022/01/30 06:30:06;;;;;;;;;0.00;0.00;;;;;14.08;40.89;97235.06;6318851;22;101992;-80
2022/01/30 06:32:33;;;;;;;;;0.00;0.00;;;;;14.07;41.03;97212.50;6320898;22;101864;-80
2022/01/30 06:35:03;;;;;;;;;1.00;0.00;;;;;14.08;40.08;97219.59;6314441;22;101827;-80
2022/01/30 06:37:32;;;;;;;;;0.00;0.00;;;;;14.08;40.76;97221.47;6312315;22;103413;-80
2022/01/30 06:39:59;;;;;;;;;1.00;0.00;;;;;14.08;40.84;97219.59;6318589;22;101955;-81
2022/01/30 06:42:28;;;;;;;;;0.00;0.00;;;;;14.08;40.18;97197.84;6310443;22;102018;-80
2022/01/30 06:44:55;;;;;;;;;0.00;0.00;;;;;14.07;40.30;97201.63;6307219;22;101792;-80
2022/01/30 06:47:22;;;;;;;;;0.00;0.00;;;;;14.06;40.46;97216.28;6311428;22;103342;-80
2022/01/30 06:49:49;;;;;;;;;0.00;0.00;;;;;14.07;40.42;97215.22;6318890;22;101976;-80
2022/01/30 06:52:16;;;;;;;;;0.00;0.00;;;;;14.09;40.72;97217.69;6315833;22;101923;-79
2022/01/30 06:54:43;;;;;;;;;0.00;0.00;;;;;14.08;40.83;97208.72;6330712;22;101787;-80
2022/01/30 06:57:10;;;;;;;;;0.00;0.00;;;;;14.08;40.19;97202.47;6283542;22;107615;-80
2022/01/30 06:59:37;;;;;;;;;0.00;0.00;;;;;14.07;40.15;97196.19;6324086;22;101998;-80
2022/01/30 07:02:06;;;;;;;;;0.00;0.00;;;;;14.08;41.07;97199.75;6292495;22;101791;-80
2022/01/30 07:04:34;;;;;;;;;0.00;0.00;;;;;14.09;40.88;97213.09;6298139;22;101675;-80
2022/01/30 07:07:03;;;;;;;;;1.00;0.00;;;;;14.09;40.05;97210.38;6324344;22;103360;-80
2022/01/30 07:09:31;;;;;;;;;0.00;0.00;;;;;14.08;40.11;97200.56;6326810;22;102583;-80
2022/01/30 07:11:58;;;;;;;;;0.00;0.00;;;;;14.10;40.57;97195.66;6325762;22;102358;-80
2022/01/30 07:14:25;;;;;;;;;0.00;0.00;;;;;14.11;40.80;97193.78;6322287;22;103260;-80
2022/01/30 07:16:52;;;;;;;;;0.00;0.00;;;;;14.11;40.85;97189.16;6323942;22;103285;-80
2022/01/30 07:19:19;;;;;;;;;0.00;0.00;;;;;14.12;40.28;97192.72;6294117;22;101820;-80
2022/01/30 07:21:46;;;;;;;;;0.00;0.00;;;;;14.12;40.21;97181.84;6295290;22;101832;-80
2022/01/30 07:24:14;;;;;;;;;0.00;0.00;;;;;14.11;40.51;97182.91;6330460;22;101639;-80
2022/01/30 07:26:41;;;;;;;;;0.00;0.00;;;;;14.12;40.69;97162.81;6322302;22;110102;-80
2022/01/30 07:29:08;;;;;;;;;0.00;0.00;;;;;14.12;40.21;97151.94;6325197;22;101695;-80
2022/01/30 07:31:35;;;;;;;;;0.00;0.00;;;;;14.11;40.87;97181.00;6298735;22;101845;-80
2022/01/30 07:34:02;;;;;;;;;0.00;0.00;;;;;14.09;40.77;97180.47;6326814;22;101545;-80
2022/01/30 07:36:30;;;;;;;;;0.00;0.00;;;;;14.12;40.21;97174.50;6321787;22;103399;-80
2022/01/30 07:38:57;;;;;;;;;0.00;0.00;;;;;14.12;40.77;97198.97;6288303;22;102132;-80
2022/01/30 07:41:24;;;;;;;;;0.00;0.00;;;;;14.12;40.06;97209.84;6291794;22;102058;-80
2022/01/30 07:43:51;;;;;;;;;0.50;0.00;;;;;14.12;40.65;97179.13;6321769;22;102292;-80
2022/01/30 07:46:18;;;;;;;;;0.00;0.00;;;;;14.13;40.24;97183.47;6324839;22;103644;-80
2022/01/30 07:48:45;;;;;;;;;0.00;0.00;;;;;14.13;40.65;97180.75;6328164;22;101614;-80
2022/01/30 07:51:12;;;;;;;;;0.00;0.00;;;;;14.14;40.03;97180.47;6326339;22;101999;-80
2022/01/30 07:53:39;;;;;;;;;0.00;0.00;;;;;14.15;40.68;97173.97;6295284;22;101774;-80
2022/01/30 07:56:06;;;;;;;;;0.00;0.00;;;;;14.15;40.81;97170.44;6317575;22;103453;-80
2022/01/30 07:58:33;;;;;;;;;0.00;0.00;;;;;14.16;40.31;97201.97;6325128;22;101833;-80
2022/01/30 08:01:00;;;;;;;;;0.00;0.00;;;;;14.14;40.63;97180.47;6325366;22;101522;-80
2022/01/30 08:03:28;;;;;;;;;0.00;0.00;;;;;14.15;39.87;97184.03;6320271;22;102014;-80
2022/01/30 08:05:55;;;;;;;;;0.00;0.00;;;;;14.15;40.32;97165.00;6318518;22;103542;-80
2022/01/30 08:08:22;;;;;;;;;0.00;0.00;;;;;14.15;40.04;97165.00;6314811;22;101796;-80
2022/01/30 08:10:49;;;;;;;;;0.75;0.00;;;;;14.15;40.71;97187.56;6318603;22;101755;-80
2022/01/30 08:13:16;;;;;;;;;0.00;0.00;;;;;14.15;40.54;97175.88;6328265;22;101913;-80
2022/01/30 08:15:45;;;;;;;;;0.00;0.00;;;;;14.15;40.67;97181.31;6320350;22;107748;-80
2022/01/30 08:18:12;;;;;;;;;0.00;0.00;;;;;14.15;40.17;97181.31;6315691;22;102292;-80
2022/01/30 08:20:39;;;;;;;;;0.00;0.00;;;;;14.16;40.09;97178.34;6320152;22;101889;-80
2022/01/30 08:23:15;;;;;;;;;0.00;0.00;;;;;14.16;40.57;97188.38;6321510;22;101733;-80
2022/01/30 08:25:42;;;;;;;;;0.00;0.00;;;;;14.16;40.63;97180.22;6320403;22;107838;-80
2022/01/30 08:28:09;;;;;;;;;0.00;0.00;;;;;14.17;40.17;97180.00;6286221;22;101962;-80
2022/01/30 08:30:37;;;;;;;;;0.00;0.00;;;;;14.17;39.83;97193.56;6318044;22;102201;-80
2022/01/30 08:33:04;;;;;;;;;0.00;0.00;;;;;14.18;40.88;97187.03;6329498;22;101583;-80
2022/01/30 08:35:31;;;;;;;;;0.00;0.00;;;;;14.19;40.73;97194.13;6284988;22;103081;-80
2022/01/30 08:37:58;;;;;;;;;0.00;0.00;;;;;14.19;40.17;97201.47;6317056;22;103537;-80
2022/01/30 08:40:25;;;;;;;;;0.00;0.00;;;;;14.18;40.14;97203.34;6287938;22;102080;-80
2022/01/30 08:42:52;;;;;;;;;0.00;0.00;;;;;14.19;40.04;97205.00;6293210;22;102102;-80
2022/01/30 08:45:20;;;;;;;;;0.00;0.00;;;;;14.20;40.56;97208.53;6323556;22;103298;-80
2022/01/30 08:47:48;;;;;;;;;0.00;0.00;;;;;14.21;40.08;97202.84;6328265;22;101567;-80
2022/01/30 08:50:15;;;;;;;;;0.00;0.00;;;;;14.19;40.23;97196.84;6319479;22;102168;-80
2022/01/30 08:52:42;;;;;;;;;0.00;0.00;;;;;14.21;40.69;97208.28;6321746;22;102057;-80
2022/01/30 08:55:10;;;;;;;;;0.00;0.00;;;;;14.22;40.19;97214.56;6327576;22;103290;-80
2022/01/30 08:57:37;;;;;;;;;0.00;0.00;;;;;14.21;40.24;97219.16;6326977;22;101704;-80
2022/01/30 09:00:06;;;;;;;;;0.00;0.00;;;;;14.22;40.65;97225.44;6294823;22;101790;-80
2022/01/30 09:02:33;;;;;;;;;0.00;0.00;;;;;14.22;40.47;97215.38;6330870;22;101918;-80
2022/01/30 09:05:00;;;;;;;;;0.00;0.00;;;;;14.21;40.18;97213.72;6290294;22;103631;-79
2022/01/30 09:07:27;;;;;;;;;0.00;0.00;;;;;14.22;40.01;97198.25;6328177;22;101827;-80
2022/01/30 09:09:54;;;;;;;;;0.00;0.00;;;;;14.23;40.70;97200.69;6327128;22;101920;-80
2022/01/30 09:12:21;;;;;;;;;0.00;0.00;;;;;14.23;40.07;97208.00;6327823;22;102052;-80
2022/01/30 09:14:48;;;;;;;;;0.00;0.00;;;;;14.23;40.50;97189.81;6321722;22;103605;-79
2022/01/30 09:17:16;;;;;;;;;1.50;0.00;;;;;14.23;40.24;97194.41;6324663;22;101841;-80
2022/01/30 09:19:46;;;;;;;;;0.00;0.00;;;;;14.23;40.06;97208.84;6317843;22;102084;-80
2022/01/30 09:22:15;;;;;;;;;0.00;0.00;;;;;14.24;40.16;97207.75;6326382;22;101933;-80
2022/01/30 09:24:42;;;;;;;;;0.00;0.00;;;;;14.23;40.54;97192.53;6308263;22;103458;-80
2022/01/30 09:27:09;;;;;;;;;0.00;0.00;;;;;14.24;40.57;97194.16;6320345;22;103464;-80
2022/01/30 09:29:37;;;;;;;;;0.00;0.00;;;;;14.24;40.57;97207.75;6305292;22;102106;-80
2022/01/30 09:32:05;;;;;;;;;0.00;0.00;;;;;14.24;40.17;97207.75;6327676;22;101715;-79
2022/01/30 09:34:32;;;;;;;;;0.00;0.00;;;;;14.23;40.44;97200.69;6324845;22;103462;-80
2022/01/30 09:36:59;;;;;;;;;1.00;0.00;;;;;14.23;40.93;97205.28;6322876;22;105387;-80
2022/01/30 09:39:26;;;;;;;;;0.50;0.50;;;;;14.22;40.29;97212.66;6296880;22;101839;-80
2022/01/30 09:41:53;;;;;;;;;0.00;0.00;;;;;14.23;40.14;97203.41;6324709;22;102138;-79
2022/01/30 09:44:21;;;;;;;;;0.00;0.00;;;;;14.23;40.51;97200.69;6319080;22;103278;-79
2022/01/30 09:46:49;;;;;;;;;0.00;0.00;;;;;14.24;40.44;97215.91;6325014;22;101604;-80
2022/01/30 09:49:22;;;;;;;;;0.00;0.00;;;;;14.24;40.56;97199.63;6295817;22;102196;-80
2022/01/30 09:51:50;;;;;;;;;0.00;0.00;;;;;14.25;40.61;97187.66;6279088;22;102072;-80
2022/01/30 09:54:17;;;;;;;;;0.00;0.00;;;;;14.25;40.56;97197.72;6319545;22;107911;-80
2022/01/30 09:56:44;;;;;;;;;0.00;0.00;;;;;14.25;40.54;97225.72;6319958;22;101689;-80
2022/01/30 09:59:11;;;;;;;;;0.00;0.00;;;;;14.26;39.80;97223.84;6317753;22;101696;-80
2022/01/30 10:01:38;;;;;;;;;0.00;0.00;;;;;14.25;40.72;97187.66;6313350;22;101541;-80
2022/01/30 10:04:06;;;;;;;;;0.00;0.00;;;;;14.24;40.54;97191.47;6321761;22;103384;-80
2022/01/30 10:07:17;;;;;;;;;0.00;0.00;;;;;14.25;40.53;97175.97;6317988;22;101747;-80
2022/01/30 10:09:46;;;;;;;;;0.00;0.00;;;;;14.25;40.72;97160.47;6121188;22;101890;-80
2022/01/30 10:12:19;;;;;;;;;0.00;0.00;;;;;14.25;40.56;97165.91;6299370;22;102579;-80
2022/01/30 10:15:05;;;;;;;;;0.00;0.00;;;;;14.25;40.04;97190.38;6312240;22;108072;-80
2022/01/30 10:17:40;;;;;;;;;0.00;0.00;;;;;14.25;40.35;97175.97;6314436;22;101864;-80
2022/01/30 10:20:27;;;;;;;;;0.00;0.00;;;;;14.25;40.16;97181.41;6309098;22;102279;-80
2022/01/30 10:22:58;;;;;;;;;0.00;0.00;;;;;14.24;40.55;97172.41;6313315;22;101733;-80
2022/01/30 10:25:52;;;;;;;;;0.00;0.00;;;;;14.25;40.15;97178.69;6320502;22;103414;-80
2022/01/30 10:28:27;;;;;;;;;0.00;0.00;;;;;14.25;40.57;97181.41;6286793;22;101614;-80
2022/01/30 10:30:56;;;;;;;;;0.00;0.00;;;;;14.25;40.65;97170.53;6313241;22;102192;-80
2022/01/30 10:33:46;;;;;;;;;0.00;0.00;;;;;14.26;40.57;97183.88;6287748;22;102043;-79
2022/01/30 10:36:18;;;;;;;;;0.00;0.00;;;;;14.27;40.14;97195.56;6307531;22;103353;-80
2022/01/30 10:38:52;;;;;;;;;0.00;0.00;;;;;14.27;40.13;97185.50;6272288;22;102182;-80
2022/01/30 10:41:30;;;;;;;;;0.00;0.00;;;;;14.27;40.01;97212.69;6318403;22;101677;-80
2022/01/30 10:43:57;;;;;;;;;0.00;0.00;;;;;14.27;40.02;97196.38;6325854;22;102145;-80
2022/01/30 10:46:31;;;;;;;;;0.00;0.00;;;;;14.27;40.17;97190.13;6320408;22;103385;-79
2022/01/30 10:49:02;;;;;;;;;0.00;0.00;;;;;14.26;39.97;97219.22;6325839;22;101505;-80
2022/01/30 10:51:31;;;;;;;;;0.00;0.00;;;;;14.27;40.40;97223.56;6324780;22;101778;-79
2022/01/30 10:53:59;;;;;;;;;0.00;0.00;;;;;14.27;40.47;97248.03;6296968;22;102026;-79
2022/01/30 10:56:27;;;;;;;;;0.00;0.00;;;;;14.26;40.60;97265.44;6318745;22;103665;-80
2022/01/30 10:59:14;;;;;;;;;0.00;0.00;;;;;14.26;40.26;97267.34;6320319;22;101750;-79
2022/01/30 11:01:47;;;;;;;;;0.00;0.00;;;;;14.26;40.08;97265.44;6321965;22;101709;-80
2022/01/30 11:04:25;;;;;;;;;0.25;0.00;;;;;14.26;40.68;97272.78;6326969;22;102274;-80
2022/01/30 11:06:52;;;;;;;;;0.00;0.00;;;;;14.25;39.92;97266.50;6324334;22;107957;-79
2022/01/30 11:09:29;;;;;;;;;0.25;0.00;;;;;14.26;40.82;97276.31;6322973;22;101590;-80
2022/01/30 11:12:02;;;;;;;;;0.00;0.00;;;;;14.26;40.23;97303.50;6318970;22;102724;-79
2022/01/30 11:14:52;;;;;;;;;0.00;0.00;;;;;14.26;40.50;97292.63;6298847;22;101893;-80
2022/01/30 11:17:20;;;;;;;;;0.00;0.00;;;;;14.27;40.17;97275.22;6324837;22;107948;-80
2022/01/30 11:19:51;;;;;;;;;0.00;0.00;;;;;14.27;40.19;97288.81;6293319;22;102059;-80
2022/01/30 11:22:20;;;;;;;;;0.00;0.00;;;;;14.26;40.05;97260.00;6295674;22;101972;-80
2022/01/30 11:24:54;;;;;;;;;0.00;0.00;;;;;14.27;39.91;97277.13;6318904;22;101702;-80
2022/01/30 11:27:22;;;;;;;;;0.00;0.00;;;;;14.27;40.63;97277.94;6313132;22;108370;-79
2022/01/30 11:29:50;;;;;;;;;0.00;0.00;;;;;14.26;40.91;97276.31;6321444;22;101568;-80
2022/01/30 11:32:18;;;;;;;;;0.00;0.00;;;;;14.26;40.26;97267.34;6316236;22;101945;-80
2022/01/30 11:34:50;;;;;;;;;0.00;0.00;;;;;14.26;40.30;97270.88;6319012;22;101849;-80
2022/01/30 11:37:32;;;;;;;;;0.00;0.00;;;;;14.27;40.76;97272.50;6307364;22;107844;-80
2022/01/30 11:40:00;;;;;;;;;1.00;0.00;;;;;14.25;40.11;97263.78;6317900;22;101937;-80
2022/01/30 11:42:37;;;;;;;;;0.00;0.00;;;;;14.25;40.82;97271.94;6314931;22;101897;-79
2022/01/30 11:45:06;;;;;;;;;0.00;0.00;;;;;14.25;40.63;97274.66;6326563;22;101732;-80
2022/01/30 11:47:55;;;;;;;;;0.00;0.00;;;;;14.25;40.12;97279.28;6314172;22;106840;-80
2022/01/30 11:50:28;;;;;;;;;0.00;0.00;;;;;14.23;40.23;97271.38;6324212;22;101853;-79
2022/01/30 11:52:57;;;;;;;;;0.00;0.00;;;;;14.24;40.33;97259.44;6320938;22;101601;-79
2022/01/30 11:55:49;;;;;;;;;0.00;0.00;;;;;14.25;40.21;97269.22;6313546;22;101751;-79
2022/01/30 11:58:37;;;;;;;;;0.00;0.00;;;;;14.26;40.82;97253.75;6319186;22;103341;-80
2022/01/30 12:01:26;;;;;;;;;0.00;0.00;;;;;14.25;40.47;97255.63;6322695;22;102128;-80
2022/01/30 12:03:56;;;;;;;;;0.00;0.00;;;;;14.25;40.17;97266.50;6324613;22;101862;-80
2022/01/30 12:06:23;;;;;;;;;0.00;0.00;;;;;14.24;40.26;97253.16;6297095;22;101848;-79
2022/01/30 12:08:54;;;;;;;;;0.00;0.00;;;;;14.24;40.42;97255.88;6323387;22;103270;-80
2022/01/30 12:11:47;;;;;;;;;0.00;0.00;;;;;14.25;41.02;97246.66;6328208;22;101827;-80
2022/01/30 12:14:20;;;;;;;;;0.00;0.00;;;;;14.24;40.22;97250.44;6320623;22;101746;-80
2022/01/30 12:16:51;;;;;;;;;0.00;0.00;;;;;14.23;40.70;97252.34;6324528;22;102199;-80
2022/01/30 12:19:30;;;;;;;;;0.00;0.00;;;;;14.23;40.12;97249.63;6329523;22;107915;-80